Time;durP1;ratioP1;P1;durP2;ratioP2;P2;SDS_P1;SDS_P2;PMS_P1;PMS_P2;Temp;Humidity;BMP_temperature;BMP_pressure;BME280_temperature;BME280_humidity;BME280_pressure;Samples;Min_cycle;Max_cycle;Signal;HPM_P1;HPM_P2
2023/04/11 00:00:50;;;;;;;38.97;25.27;;;9.40;99.90;;;;;;4974108;28;20046;-76
2023/04/11 00:03:16;;;;;;;39.05;25.20;;;9.50;99.90;;;;;;4973738;28;20062;-76
2023/04/11 00:05:41;;;;;;;37.55;26.73;;;9.50;99.90;;;;;;4974044;28;20511;-74
2023/04/11 00:08:07;;;;;;;43.10;25.33;;;9.50;99.90;;;;;;4973876;28;20085;-74
2023/04/11 00:10:33;;;;;;;35.60;25.38;;;9.50;99.90;;;;;;4973573;28;20041;-74
2023/04/11 00:12:59;;;;;;;36.40;24.25;;;9.40;99.90;;;;;;4973600;28;20398;-74
2023/04/11 00:15:25;;;;;;;41.17;25.45;;;9.50;99.90;;;;;;4969255;28;20031;-75
2023/04/11 00:17:54;;;;;;;37.72;26.25;;;9.50;99.90;;;;;;4972446;28;20058;-75
2023/04/11 00:20:21;;;;;;;42.10;26.10;;;9.50;99.90;;;;;;4962466;28;20141;-74
2023/04/11 00:22:47;;;;;;;36.78;25.20;;;9.60;99.90;;;;;;4971045;28;20158;-73
2023/04/11 00:25:14;;;;;;;41.40;27.15;;;9.70;99.90;;;;;;4971018;28;20035;-74
2023/04/11 00:27:40;;;;;;;42.88;26.88;;;9.70;99.90;;;;;;4973148;28;20033;-74
2023/04/11 00:30:07;;;;;;;41.13;26.77;;;9.60;99.90;;;;;;4964049;28;20048;-75
2023/04/11 00:32:33;;;;;;;40.35;27.55;;;9.60;99.90;;;;;;4972789;28;20027;-74
2023/04/11 00:34:58;;;;;;;37.92;25.58;;;9.60;99.90;;;;;;4971032;28;20434;-74
2023/04/11 00:37:24;;;;;;;36.80;24.90;;;9.60;99.90;;;;;;4967767;28;20030;-75
2023/04/11 00:39:51;;;;;;;43.53;26.35;;;9.50;99.90;;;;;;4973596;28;20049;-75
2023/04/11 00:42:18;;;;;;;38.88;26.23;;;9.50;99.90;;;;;;4972045;28;20077;-75
2023/04/11 00:44:45;;;;;;;35.05;24.48;;;9.50;99.90;;;;;;4972557;28;20047;-74
2023/04/11 00:47:11;;;;;;;38.55;25.35;;;9.40;99.90;;;;;;4971838;28;20035;-74
2023/04/11 00:49:38;;;;;;;36.72;25.10;;;9.40;99.90;;;;;;4973352;28;20459;-75
2023/04/11 00:52:05;;;;;;;36.47;24.92;;;9.50;99.90;;;;;;4973111;28;20019;-73
2023/04/11 00:54:32;;;;;;;39.25;24.25;;;9.40;99.90;;;;;;4971930;28;20034;-75
2023/04/11 00:57:00;;;;;;;38.35;24.88;;;9.50;99.90;;;;;;4951916;28;20174;-75
2023/04/11 00:59:31;;;;;;;35.75;24.25;;;9.60;99.90;;;;;;4941068;28;20050;-75
2023/04/11 01:01:58;;;;;;;34.15;22.58;;;9.60;99.90;;;;;;4970896;28;20367;-75
2023/04/11 01:04:25;;;;;;;34.95;22.50;;;9.60;99.90;;;;;;4970576;28;20027;-74
2023/04/11 01:06:58;;;;;;;33.25;22.48;;;9.60;99.90;;;;;;4967135;28;20014;-74
2023/04/11 01:09:27;;;;;;;36.17;22.90;;;9.70;99.90;;;;;;4971857;28;20113;-74
2023/04/11 01:11:53;;;;;;;31.40;19.80;;;9.70;99.90;;;;;;4973083;28;20109;-75
2023/04/11 01:14:20;;;;;;;30.55;21.60;;;9.70;99.90;;;;;;4972440;28;20343;-76
2023/04/11 01:16:47;;;;;;;32.38;20.55;;;9.70;99.90;;;;;;4969488;28;20031;-76
2023/04/11 01:19:20;;;;;;;28.65;19.15;;;9.70;99.90;;;;;;4953876;28;20089;-76
2023/04/11 01:21:48;;;;;;;30.35;20.42;;;9.70;99.90;;;;;;4972757;28;20236;-72
2023/04/11 01:24:14;;;;;;;27.50;19.25;;;9.70;99.90;;;;;;4972827;28;20461;-75
2023/04/11 01:26:41;;;;;;;31.90;20.58;;;9.80;99.90;;;;;;4972637;28;20037;-75
2023/04/11 01:29:08;;;;;;;27.45;19.30;;;9.70;99.90;;;;;;4955629;28;20633;-76
2023/04/11 01:31:34;;;;;;;31.92;21.42;;;9.70;99.90;;;;;;4955564;28;20031;-77
2023/04/11 01:34:01;;;;;;;30.00;20.38;;;9.70;99.90;;;;;;4972267;28;20040;-76
2023/04/11 01:36:28;;;;;;;27.27;18.17;;;9.60;99.90;;;;;;4972835;28;20109;-76
2023/04/11 01:38:54;;;;;;;30.30;19.23;;;9.60;99.90;;;;;;4954953;28;20031;-75
2023/04/11 01:41:22;;;;;;;29.00;18.30;;;9.60;99.90;;;;;;4972837;28;20130;-75
2023/04/11 01:43:49;;;;;;;30.67;19.35;;;9.50;99.90;;;;;;4970911;28;20039;-74
2023/04/11 01:46:16;;;;;;;27.75;18.55;;;9.50;99.90;;;;;;4971577;28;20118;-74
2023/04/11 01:48:44;;;;;;;28.80;18.98;;;9.50;99.90;;;;;;4954587;28;20459;-75
2023/04/11 01:51:10;;;;;;;28.25;18.80;;;9.50;99.90;;;;;;4955357;28;20553;-75
2023/04/11 01:53:36;;;;;;;30.25;18.75;;;9.50;99.90;;;;;;4942831;28;20042;-74
2023/04/11 01:56:03;;;;;;;30.00;19.17;;;9.50;99.90;;;;;;4971035;28;20069;-74
2023/04/11 01:58:28;;;;;;;28.67;19.40;;;9.50;99.90;;;;;;4971352;28;20030;-74
2023/04/11 02:00:54;;;;;;;28.95;18.42;;;9.40;99.90;;;;;;4955232;28;20038;-74
2023/04/11 02:03:21;;;;;;;27.58;18.17;;;9.50;99.90;;;;;;4972861;28;20057;-73
2023/04/11 02:05:47;;;;;;;30.08;18.17;;;9.40;99.90;;;;;;4972217;28;20041;-75
2023/04/11 02:08:13;;;;;;;26.45;16.95;;;9.40;99.90;;;;;;4954974;28;20031;-75
2023/04/11 02:10:39;;;;;;;28.55;17.40;;;9.40;99.90;;;;;;4972184;28;20034;-74
2023/04/11 02:13:04;;;;;;;28.08;15.98;;;9.40;99.90;;;;;;4974107;28;20022;-74
2023/04/11 02:15:31;;;;;;;26.88;17.17;;;9.40;99.90;;;;;;4975460;28;20081;-74
2023/04/11 02:17:59;;;;;;;30.73;17.52;;;9.40;99.90;;;;;;4962682;28;20422;-75
2023/04/11 02:20:25;;;;;;;29.27;15.93;;;9.40;99.90;;;;;;4975754;28;20039;-74
2023/04/11 02:22:51;;;;;;;26.15;16.35;;;9.40;99.90;;;;;;4958507;28;20023;-75
2023/04/11 02:25:17;;;;;;;24.40;15.38;;;9.40;99.90;;;;;;4974948;28;20422;-75
2023/04/11 02:27:43;;;;;;;23.75;16.83;;;9.40;99.90;;;;;;4957739;28;20183;-76
2023/04/11 02:30:19;;;;;;;25.80;16.80;;;9.40;99.90;;;;;;4974529;28;20118;-75
2023/04/11 02:32:48;;;;;;;28.95;17.00;;;9.40;99.90;;;;;;4973980;28;20038;-73
2023/04/11 02:35:15;;;;;;;26.45;17.00;;;9.40;99.90;;;;;;4957156;28;20065;-75
2023/04/11 02:37:41;;;;;;;26.92;16.60;;;9.40;99.90;;;;;;4957560;28;20033;-74
2023/04/11 02:40:08;;;;;;;25.88;16.95;;;9.40;99.90;;;;;;4957459;28;20057;-75
2023/04/11 02:42:39;;;;;;;27.80;16.95;;;9.40;99.90;;;;;;4975523;28;20110;-75
2023/04/11 02:45:05;;;;;;;25.98;16.42;;;9.30;99.90;;;;;;4957593;28;20533;-75
2023/04/11 02:47:31;;;;;;;25.35;14.98;;;9.40;99.90;;;;;;4975297;28;20540;-76
2023/04/11 02:50:02;;;;;;;27.40;16.52;;;9.40;99.90;;;;;;4957650;28;20399;-75
2023/04/11 02:52:34;;;;;;;25.40;15.43;;;9.30;99.90;;;;;;4957961;28;20047;-75
2023/04/11 02:55:00;;;;;;;25.20;15.40;;;9.20;99.90;;;;;;4973829;28;20046;-74
2023/04/11 02:57:26;;;;;;;26.38;17.17;;;9.20;99.90;;;;;;4973909;28;20030;-75
2023/04/11 02:59:54;;;;;;;26.60;17.83;;;9.20;99.90;;;;;;4974033;28;20498;-73
2023/04/11 03:02:28;;;;;;;25.80;17.45;;;9.20;99.90;;;;;;4973467;28;20026;-73
2023/04/11 03:04:55;;;;;;;26.35;19.38;;;9.10;99.90;;;;;;4945252;29;20515;-75
2023/04/11 03:07:21;;;;;;;29.83;19.65;;;9.10;99.90;;;;;;4974473;28;20102;-74
2023/04/11 03:09:46;;;;;;;26.88;18.13;;;9.10;99.90;;;;;;4974719;28;20034;-74
2023/04/11 03:12:12;;;;;;;26.58;16.38;;;9.00;99.90;;;;;;4956942;28;20035;-74
2023/04/11 03:14:49;;;;;;;30.27;17.38;;;9.00;99.90;;;;;;4956939;28;20093;-74
2023/04/11 03:17:15;;;;;;;27.02;17.55;;;9.00;99.90;;;;;;4962241;28;20035;-76
2023/04/11 03:19:41;;;;;;;29.05;18.23;;;9.00;99.90;;;;;;4968927;28;20056;-73
2023/04/11 03:22:10;;;;;;;25.17;16.75;;;9.10;99.90;;;;;;4945465;28;20105;-75
2023/04/11 03:24:38;;;;;;;26.27;17.63;;;9.00;99.90;;;;;;4944857;28;20046;-74
2023/04/11 03:27:04;;;;;;;28.98;18.80;;;9.00;99.90;;;;;;4974014;28;20142;-76
2023/04/11 03:29:31;;;;;;;26.40;18.17;;;9.00;99.90;;;;;;4956358;28;20114;-72
2023/04/11 03:32:13;;;;;;;23.83;15.70;;;9.00;99.90;;;;;;4953685;29;20387;-75
2023/04/11 03:34:39;;;;;;;24.60;16.42;;;9.00;99.90;;;;;;4953285;28;20633;-75
2023/04/11 03:37:08;;;;;;;26.58;16.42;;;9.00;99.90;;;;;;4971601;28;20019;-73
2023/04/11 03:39:35;;;;;;;24.60;15.48;;;9.00;99.90;;;;;;4956915;28;20054;-74
2023/04/11 03:42:01;;;;;;;23.70;15.25;;;9.00;99.90;;;;;;4956544;28;20061;-74
2023/04/11 03:44:28;;;;;;;25.35;16.08;;;9.00;99.90;;;;;;4964084;28;20106;-75
2023/04/11 03:46:55;;;;;;;23.42;15.63;;;9.00;99.90;;;;;;4956686;28;20027;-76
2023/04/11 03:49:24;;;;;;;22.55;14.85;;;9.00;99.90;;;;;;4965290;28;20368;-75
2023/04/11 03:51:54;;;;;;;25.08;16.33;;;9.00;99.90;;;;;;4956819;28;20118;-75
2023/04/11 03:54:20;;;;;;;23.65;14.98;;;9.00;99.90;;;;;;4967196;28;20063;-75
2023/04/11 03:56:47;;;;;;;25.45;16.27;;;9.00;99.90;;;;;;4956288;28;20088;-75
2023/04/11 03:59:20;;;;;;;26.13;16.42;;;9.00;99.90;;;;;;4954085;28;20062;-75
2023/04/11 04:02:00;;;;;;;30.88;17.08;;;8.90;99.90;;;;;;4955999;28;20050;-75
2023/04/11 04:04:27;;;;;;;28.48;16.70;;;8.90;99.90;;;;;;4956686;28;20502;-75
2023/04/11 04:07:09;;;;;;;26.87;18.07;;;8.90;99.90;;;;;;4972500;28;20031;-74
2023/04/11 04:09:41;;;;;;;27.70;16.48;;;8.90;99.90;;;;;;4952193;29;20027;-74
2023/04/11 04:12:08;;;;;;;28.45;17.50;;;8.90;99.90;;;;;;4943396;28;20101;-74
2023/04/11 04:14:58;;;;;;;23.35;16.00;;;8.90;99.90;;;;;;4945891;28;20022;-76
2023/04/11 04:17:24;;;;;;;25.55;16.48;;;9.00;99.90;;;;;;4956173;28;20165;-78
2023/04/11 04:19:50;;;;;;;23.98;14.68;;;9.30;99.90;;;;;;4971916;28;20487;-75
2023/04/11 04:22:16;;;;;;;23.58;14.13;;;9.50;99.90;;;;;;4972471;28;20061;-75
2023/04/11 04:24:48;;;;;;;23.77;14.32;;;9.50;99.90;;;;;;4972200;28;20110;-76
2023/04/11 04:27:26;;;;;;;27.98;16.00;;;9.40;99.90;;;;;;4956050;28;20074;-76
2023/04/11 04:29:55;;;;;;;25.75;15.55;;;9.30;99.90;;;;;;4972199;28;20027;-75
2023/04/11 04:32:29;;;;;;;28.65;14.63;;;9.20;99.90;;;;;;4972063;28;20034;-76
2023/04/11 04:35:00;;;;;;;27.05;15.93;;;9.20;99.90;;;;;;4955680;28;20041;-76
2023/04/11 04:37:38;;;;;;;25.52;16.27;;;9.10;99.90;;;;;;4956143;28;20037;-76
2023/04/11 04:40:12;;;;;;;25.83;15.25;;;9.10;99.90;;;;;;4955839;28;20042;-76
2023/04/11 04:42:57;;;;;;;28.17;15.50;;;9.10;99.90;;;;;;4955932;28;20167;-76
2023/04/11 04:45:28;;;;;;;21.17;14.57;;;9.10;99.90;;;;;;4955752;28;20046;-75
2023/04/11 04:47:56;;;;;;;25.67;16.70;;;9.10;99.90;;;;;;4955379;28;20510;-75
2023/04/11 04:50:22;;;;;;;23.95;15.52;;;9.20;99.90;;;;;;4973350;28;20038;-76
2023/04/11 04:52:48;;;;;;;22.38;13.98;;;9.20;99.90;;;;;;4955579;28;20382;-76
2023/04/11 04:55:14;;;;;;;22.80;13.60;;;9.20;99.90;;;;;;4973402;28;20246;-75
2023/04/11 04:57:41;;;;;;;25.58;13.93;;;9.20;99.90;;;;;;4971340;28;20089;-76
2023/04/11 05:00:10;;;;;;;23.08;14.38;;;9.20;99.90;;;;;;4955748;28;20508;-76
2023/04/11 05:02:39;;;;;;;21.70;13.75;;;9.20;99.90;;;;;;4955746;28;20043;-73
2023/04/11 05:05:06;;;;;;;24.95;14.90;;;9.20;99.90;;;;;;4956055;28;20085;-75
2023/04/11 05:07:33;;;;;;;23.52;13.90;;;9.20;99.90;;;;;;4955935;28;20498;-75
2023/04/11 05:09:59;;;;;;;24.25;14.82;;;9.30;99.90;;;;;;4971933;28;20042;-75
2023/04/11 05:12:27;;;;;;;20.20;13.98;;;9.30;99.90;;;;;;4971858;28;20077;-72
2023/04/11 05:14:57;;;;;;;23.50;15.07;;;9.30;99.90;;;;;;4955603;28;20031;-75
2023/04/11 05:17:26;;;;;;;22.30;13.90;;;9.40;99.90;;;;;;4955663;28;20058;-78
2023/04/11 05:19:52;;;;;;;22.98;13.60;;;9.40;99.90;;;;;;4971415;28;20114;-75
2023/04/11 05:22:19;;;;;;;23.33;14.15;;;9.50;99.90;;;;;;4955566;28;20077;-71
2023/04/11 05:24:48;;;;;;;24.35;12.20;;;9.60;99.90;;;;;;4955584;28;20521;-76
2023/04/11 05:27:15;;;;;;;22.17;13.70;;;9.70;99.90;;;;;;4955250;28;20027;-76
2023/04/11 05:29:42;;;;;;;22.85;13.18;;;9.70;99.90;;;;;;4955569;28;20023;-77
2023/04/11 05:32:08;;;;;;;22.50;13.32;;;9.80;99.90;;;;;;4955264;28;20031;-75
2023/04/11 05:34:50;;;;;;;22.98;13.40;;;9.90;99.90;;;;;;4971611;28;20029;-75
2023/04/11 05:37:16;;;;;;;23.38;13.43;;;9.90;99.90;;;;;;4971639;28;20431;-76
2023/04/11 05:39:42;;;;;;;23.40;14.23;;;9.90;99.90;;;;;;4954570;28;20042;-76
2023/04/11 05:42:08;;;;;;;22.90;15.55;;;10.00;99.90;;;;;;4972726;28;20110;-75
2023/04/11 05:44:34;;;;;;;23.83;14.07;;;10.00;99.90;;;;;;4955141;28;20423;-76
2023/04/11 05:47:00;;;;;;;24.52;15.00;;;10.00;99.90;;;;;;4972093;28;20071;-74
2023/04/11 05:49:26;;;;;;;20.30;13.82;;;10.00;99.90;;;;;;4974697;28;20062;-76
2023/04/11 05:51:52;;;;;;;23.73;14.57;;;10.00;99.90;;;;;;4959087;28;20113;-76
2023/04/11 05:54:38;;;;;;;22.52;13.52;;;10.00;99.90;;;;;;4958675;28;20027;-75
2023/04/11 05:57:05;;;;;;;24.70;14.55;;;10.10;99.90;;;;;;4976074;28;20149;-76
2023/04/11 05:59:31;;;;;;;23.77;14.45;;;10.20;99.90;;;;;;4976296;28;20113;-77
2023/04/11 06:02:00;;;;;;;23.83;14.73;;;10.20;99.90;;;;;;4975826;28;20043;-77
2023/04/11 06:04:26;;;;;;;23.05;13.23;;;10.30;99.90;;;;;;4976168;28;20066;-76
2023/04/11 06:06:52;;;;;;;22.15;13.48;;;10.30;99.90;;;;;;4976037;28;20023;-75
2023/04/11 06:09:18;;;;;;;21.52;14.70;;;10.30;99.90;;;;;;4976268;28;20018;-76
2023/04/11 06:11:46;;;;;;;20.95;13.82;;;10.30;99.90;;;;;;4975884;28;20033;-76
2023/04/11 06:14:12;;;;;;;25.70;16.95;;;10.40;99.90;;;;;;4976034;28;20114;-76
2023/04/11 06:16:37;;;;;;;23.27;14.23;;;10.50;99.90;;;;;;4976012;28;20382;-75
2023/04/11 06:19:04;;;;;;;28.00;16.02;;;10.50;99.90;;;;;;4976525;28;20023;-75
2023/04/11 06:21:33;;;;;;;21.58;13.85;;;10.60;99.90;;;;;;4976148;28;20039;-76
2023/04/11 06:24:06;;;;;;;23.27;14.15;;;10.80;99.90;;;;;;4975504;28;20023;-76
2023/04/11 06:26:32;;;;;;;24.30;14.35;;;10.80;99.90;;;;;;4975882;28;20078;-77
2023/04/11 06:28:58;;;;;;;22.27;13.50;;;10.90;99.90;;;;;;4975720;28;20402;-77
2023/04/11 06:31:24;;;;;;;20.73;13.85;;;11.00;99.90;;;;;;4975643;28;20134;-77
2023/04/11 06:33:50;;;;;;;24.67;13.75;;;11.30;99.90;;;;;;4975198;28;20434;-78
2023/04/11 06:36:15;;;;;;;22.27;12.68;;;11.60;99.90;;;;;;4975437;28;20062;-75
2023/04/11 06:38:42;;;;;;;23.58;13.88;;;11.90;99.90;;;;;;4975804;28;20015;-75
2023/04/11 06:41:08;;;;;;;26.83;16.10;;;11.90;99.90;;;;;;4975440;28;20549;-76
2023/04/11 06:43:33;;;;;;;24.42;14.15;;;12.00;99.90;;;;;;4975539;28;20019;-76
2023/04/11 06:45:59;;;;;;;26.20;14.98;;;12.00;99.90;;;;;;4975933;28;20030;-75
2023/04/11 06:48:26;;;;;;;25.55;14.95;;;11.90;99.90;;;;;;4975373;28;20027;-76
2023/04/11 06:50:52;;;;;;;22.83;15.48;;;11.70;99.90;;;;;;4958079;28;20360;-76
2023/04/11 06:53:18;;;;;;;23.58;14.52;;;11.60;99.90;;;;;;4980304;28;20081;-76
2023/04/11 06:55:48;;;;;;;20.77;13.15;;;11.60;99.90;;;;;;4984237;28;20118;-75
2023/04/11 06:58:14;;;;;;;19.10;11.75;;;11.60;99.90;;;;;;4976050;28;20339;-76
2023/04/11 07:00:41;;;;;;;20.80;12.82;;;11.60;99.90;;;;;;4974929;28;20046;-76
2023/04/11 07:03:07;;;;;;;20.13;12.80;;;11.60;99.90;;;;;;4974786;28;20015;-74
2023/04/11 07:05:34;;;;;;;20.10;12.40;;;11.70;99.90;;;;;;4975369;28;20062;-74
2023/04/11 07:08:00;;;;;;;20.90;13.05;;;11.80;99.90;;;;;;4974812;28;20482;-74
2023/04/11 07:10:26;;;;;;;19.35;11.93;;;11.90;99.90;;;;;;4975222;28;20030;-77
2023/04/11 07:12:52;;;;;;;18.80;12.43;;;12.10;99.90;;;;;;4974663;28;20522;-77
2023/04/11 07:15:18;;;;;;;18.45;11.57;;;12.00;99.90;;;;;;4974887;28;20030;-77
2023/04/11 07:17:43;;;;;;;20.65;12.35;;;12.30;99.90;;;;;;4974540;28;20094;-74
2023/04/11 07:20:10;;;;;;;23.92;13.10;;;12.20;99.90;;;;;;4974748;28;20039;-77
2023/04/11 07:22:36;;;;;;;21.40;13.27;;;12.70;99.90;;;;;;4974346;28;20374;-76
2023/04/11 07:25:04;;;;;;;21.48;14.50;;;12.90;99.90;;;;;;4975149;28;20026;-74
2023/04/11 07:27:31;;;;;;;21.67;11.30;;;13.00;99.90;;;;;;4974624;28;20070;-73
2023/04/11 07:29:57;;;;;;;21.27;13.95;;;13.10;99.90;;;;;;4974421;28;20045;-73
2023/04/11 07:32:23;;;;;;;19.92;11.93;;;13.30;99.90;;;;;;4974192;28;20026;-76
2023/04/11 07:34:49;;;;;;;17.63;12.00;;;13.30;99.90;;;;;;4974407;28;20026;-72
2023/04/11 07:37:15;;;;;;;21.50;13.13;;;13.40;99.90;;;;;;4974727;28;20093;-75
2023/04/11 07:39:41;;;;;;;22.88;13.27;;;13.50;97.80;;;;;;4974204;28;20026;-76
2023/04/11 07:42:07;;;;;;;20.48;12.20;;;13.50;99.60;;;;;;4974400;28;20047;-76
2023/04/11 07:44:33;;;;;;;20.42;12.65;;;13.60;98.50;;;;;;4953979;29;20122;-76
2023/04/11 07:46:59;;;;;;;20.98;12.73;;;13.80;98.70;;;;;;4955098;29;20498;-76
2023/04/11 07:49:25;;;;;;;19.75;11.32;;;14.00;99.10;;;;;;4955212;29;20020;-73
2023/04/11 07:51:51;;;;;;;18.48;12.15;;;14.00;97.00;;;;;;4954608;29;20019;-72
2023/04/11 07:54:16;;;;;;;22.13;12.43;;;14.10;98.60;;;;;;4955251;29;20035;-77
2023/04/11 07:56:42;;;;;;;18.83;13.02;;;14.10;97.70;;;;;;4954608;29;20398;-76
2023/04/11 07:59:08;;;;;;;18.50;12.20;;;14.10;97.20;;;;;;4954997;28;20031;-77
2023/04/11 08:01:34;;;;;;;20.60;12.73;;;14.10;97.50;;;;;;4954506;29;20091;-71
2023/04/11 08:04:00;;;;;;;18.88;12.70;;;14.10;96.40;;;;;;4954979;29;20030;-77
2023/04/11 08:06:27;;;;;;;17.88;10.48;;;14.30;98.10;;;;;;4954806;29;20523;-74
2023/04/11 08:08:53;;;;;;;20.38;12.32;;;14.50;97.40;;;;;;4954756;29;20024;-77
2023/04/11 08:11:19;;;;;;;19.67;11.63;;;14.50;96.20;;;;;;4953641;28;20031;-77
2023/04/11 08:13:45;;;;;;;19.77;13.00;;;14.50;95.20;;;;;;4954742;29;20030;-76
2023/04/11 08:16:13;;;;;;;19.17;11.73;;;14.50;96.40;;;;;;4953031;29;20376;-75
2023/04/11 08:18:40;;;;;;;18.77;12.07;;;14.40;96.30;;;;;;4954512;29;20019;-76
2023/04/11 08:21:08;;;;;;;22.38;12.38;;;14.40;95.70;;;;;;4954804;28;20050;-77
2023/04/11 08:23:36;;;;;;;19.95;12.50;;;14.50;94.80;;;;;;4954076;29;20368;-76
2023/04/11 08:26:03;;;;;;;20.38;12.80;;;14.50;95.40;;;;;;4954435;29;20110;-73
2023/04/11 08:28:28;;;;;;;22.25;14.40;;;14.90;96.40;;;;;;4954031;29;20094;-76
2023/04/11 08:30:57;;;;;;;19.65;12.60;;;15.10;95.60;;;;;;4954210;29;20039;-75
2023/04/11 08:33:24;;;;;;;22.08;13.65;;;14.90;94.10;;;;;;4953857;29;20028;-75
2023/04/11 08:35:50;;;;;;;18.63;11.35;;;14.90;94.90;;;;;;4954051;29;20041;-74
2023/04/11 08:38:16;;;;;;;18.98;11.65;;;15.10;93.60;;;;;;4953936;28;20424;-72
2023/04/11 08:40:42;;;;;;;20.00;12.45;;;15.20;94.90;;;;;;4954018;28;20038;-76
2023/04/11 08:43:11;;;;;;;19.52;13.55;;;15.30;94.50;;;;;;4954116;28;20483;-76
2023/04/11 08:45:40;;;;;;;20.77;13.55;;;15.20;94.70;;;;;;4970278;28;20517;-76
2023/04/11 08:48:07;;;;;;;21.35;13.40;;;15.20;93.80;;;;;;4960152;28;20039;-77
2023/04/11 08:50:34;;;;;;;19.98;12.20;;;15.50;93.40;;;;;;4965021;28;20031;-76
2023/04/11 08:53:03;;;;;;;19.95;12.75;;;15.50;93.40;;;;;;4953603;29;20091;-74
2023/04/11 08:55:32;;;;;;;21.23;13.02;;;15.60;93.30;;;;;;4953799;29;20049;-76
2023/04/11 08:57:58;;;;;;;18.95;12.23;;;15.70;91.90;;;;;;4969305;28;20669;-75
2023/04/11 09:00:27;;;;;;;18.48;11.88;;;15.30;90.90;;;;;;4973248;28;20494;-76
2023/04/11 09:03:04;;;;;;;21.05;11.93;;;15.50;90.20;;;;;;4972101;28;20544;-75
2023/04/11 09:05:42;;;;;;;18.77;12.18;;;15.60;90.40;;;;;;4962553;28;20043;-76
2023/04/11 09:08:10;;;;;;;20.40;12.77;;;15.70;91.30;;;;;;4959362;28;20023;-75
2023/04/11 09:10:37;;;;;;;20.40;12.20;;;15.70;91.30;;;;;;4973086;28;20110;-74
2023/04/11 09:13:26;;;;;;;20.60;12.15;;;15.50;90.80;;;;;;4973089;28;20100;-76
2023/04/11 09:16:08;;;;;;;19.88;11.93;;;15.30;91.90;;;;;;4959815;28;20060;-77
2023/04/11 09:18:42;;;;;;;19.42;12.13;;;15.60;92.30;;;;;;4961162;28;20027;-78
2023/04/11 09:21:13;;;;;;;21.02;12.80;;;15.60;91.00;;;;;;4972796;28;20094;-77
2023/04/11 09:23:39;;;;;;;19.02;11.40;;;15.70;91.90;;;;;;4975750;28;20509;-76
2023/04/11 09:26:07;;;;;;;19.40;11.75;;;15.80;90.20;;;;;;4964636;28;20026;-77
2023/04/11 09:28:52;;;;;;;18.00;11.25;;;15.90;90.10;;;;;;4976756;28;20053;-77
2023/04/11 09:31:18;;;;;;;19.42;11.77;;;16.10;91.30;;;;;;4976749;28;20041;-76
2023/04/11 09:33:55;;;;;;;18.48;12.52;;;15.90;87.50;;;;;;4973159;28;20015;-78
2023/04/11 09:36:23;;;;;;;17.52;11.40;;;15.70;91.20;;;;;;4968640;28;20482;-77
2023/04/11 09:38:50;;;;;;;18.73;11.60;;;15.50;89.80;;;;;;4958435;28;20023;-77
2023/04/11 09:41:32;;;;;;;18.02;10.48;;;15.70;92.00;;;;;;4969144;28;20039;-77
2023/04/11 09:43:58;;;;;;;20.40;12.63;;;15.70;88.10;;;;;;4976215;28;20035;-77
2023/04/11 09:46:24;;;;;;;16.35;11.02;;;15.90;90.80;;;;;;4974822;28;20093;-77
2023/04/11 09:48:51;;;;;;;17.20;11.18;;;16.30;90.80;;;;;;4963980;28;20433;-76
2023/04/11 09:51:18;;;;;;;19.77;12.45;;;16.40;89.10;;;;;;4976671;28;20478;-76
2023/04/11 09:53:44;;;;;;;19.10;11.27;;;16.60;90.30;;;;;;4968578;28;20577;-75
2023/04/11 09:56:10;;;;;;;17.17;11.15;;;16.90;89.90;;;;;;4954477;29;20034;-75
2023/04/11 09:58:38;;;;;;;16.80;10.90;;;16.80;89.40;;;;;;4947600;28;20439;-77
2023/04/11 10:01:07;;;;;;;18.10;10.23;;;16.30;88.10;;;;;;4958872;28;20070;-76
2023/04/11 10:03:35;;;;;;;17.73;10.65;;;16.00;87.40;;;;;;4965573;28;20050;-77
2023/04/11 10:06:08;;;;;;;15.32;10.32;;;15.80;88.10;;;;;;4976154;28;20460;-73
2023/04/11 10:08:38;;;;;;;15.00;9.60;;;15.90;90.30;;;;;;4951911;28;20052;-75
2023/04/11 10:11:07;;;;;;;16.42;9.68;;;16.00;87.60;;;;;;4964189;28;20386;-78
2023/04/11 10:13:44;;;;;;;19.50;10.23;;;16.20;88.40;;;;;;4961047;28;20097;-72
2023/04/11 10:16:17;;;;;;;17.60;10.50;;;16.50;90.00;;;;;;4956761;29;20039;-76
2023/04/11 10:18:52;;;;;;;17.13;10.65;;;16.70;89.00;;;;;;4960136;28;20031;-78
2023/04/11 10:21:35;;;;;;;17.48;10.63;;;16.70;87.70;;;;;;4975967;28;20054;-74
2023/04/11 10:24:20;;;;;;;17.42;10.85;;;16.80;88.50;;;;;;4952030;28;20106;-75
2023/04/11 10:26:54;;;;;;;15.48;9.55;;;16.70;88.30;;;;;;4952809;29;20031;-74
2023/04/11 10:30:01;;;;;;;18.08;11.77;;;16.80;83.90;;;;;;4952082;28;20031;-75
2023/04/11 10:32:22;;;;;;;18.65;10.43;;;16.90;87.60;;;;;;4951933;28;20380;-74
2023/04/11 10:34:54;;;;;;;15.98;9.05;;;16.60;85.00;;;;;;4954193;28;20177;-76
2023/04/11 10:37:29;;;;;;;15.75;9.52;;;16.60;83.50;;;;;;4950254;28;20019;-74
2023/04/11 10:40:01;;;;;;;16.30;10.27;;;16.70;86.20;;;;;;4954936;28;20440;-75
2023/04/11 10:42:30;;;;;;;17.90;10.82;;;16.20;87.90;;;;;;4954613;28;20499;-76
2023/04/11 10:45:20;;;;;;;17.25;10.68;;;16.40;88.80;;;;;;4954347;28;20507;-76
2023/04/11 10:47:55;;;;;;;17.42;10.38;;;16.80;89.80;;;;;;4954654;28;20039;-76
2023/04/11 10:50:29;;;;;;;17.67;10.02;;;17.10;90.60;;;;;;4955336;28;20043;-76
2023/04/11 10:52:57;;;;;;;15.50;8.90;;;17.20;88.40;;;;;;4951363;29;20023;-75
2023/04/11 10:55:25;;;;;;;18.02;10.77;;;17.00;83.30;;;;;;4954811;29;20027;-76
2023/04/11 10:58:07;;;;;;;17.15;9.75;;;17.00;87.20;;;;;;4954316;29;20023;-77
2023/04/11 11:03:19;;;;;;;15.95;9.40;;;17.10;84.20;;;;;;4954360;28;20506;-76
2023/04/11 11:05:45;;;;;;;16.60;9.20;;;17.20;83.10;;;;;;4954416;29;20118;-76
2023/04/11 11:08:11;;;;;;;14.70;8.32;;;17.30;84.40;;;;;;4954342;29;20085;-76
2023/04/11 11:10:40;;;;;;;24.65;10.20;;;17.40;82.90;;;;;;4954272;28;20027;-75
2023/04/11 11:13:07;;;;;;;15.77;9.23;;;17.20;83.90;;;;;;4943199;29;20503;-77
2023/04/11 11:15:36;;;;;;;13.35;8.30;;;17.10;84.20;;;;;;4955877;29;20177;-76
2023/04/11 11:18:07;;;;;;;16.67;9.70;;;17.00;83.10;;;;;;4955418;29;20666;-74
2023/04/11 11:20:38;;;;;;;15.43;9.00;;;17.00;82.80;;;;;;4955424;29;20050;-75
2023/04/11 11:23:06;;;;;;;14.10;9.00;;;17.10;84.30;;;;;;4955324;29;20034;-75
2023/04/11 11:25:32;;;;;;;17.08;10.93;;;17.30;85.80;;;;;;4955740;29;20023;-75
2023/04/11 11:28:02;;;;;;;14.80;9.82;;;17.40;84.10;;;;;;4955034;29;20027;-71
2023/04/11 11:30:28;;;;;;;17.23;10.70;;;17.40;85.00;;;;;;4955749;28;20479;-74
2023/04/11 11:32:55;;;;;;;17.35;9.88;;;17.60;85.40;;;;;;4955134;29;20565;-75
2023/04/11 11:35:22;;;;;;;13.88;8.63;;;18.10;86.70;;;;;;4955893;29;20015;-76
2023/04/11 11:37:52;;;;;;;16.20;9.27;;;18.10;84.10;;;;;;4954740;29;20452;-75
2023/04/11 11:40:21;;;;;;;14.15;8.57;;;18.10;83.30;;;;;;4954648;29;20376;-76
2023/04/11 11:42:50;;;;;;;13.02;8.15;;;17.80;82.70;;;;;;4955255;29;20028;-75
2023/04/11 11:45:20;;;;;;;18.73;9.65;;;17.70;85.00;;;;;;4961235;28;20171;-77
2023/04/11 11:47:48;;;;;;;14.65;9.55;;;17.50;83.90;;;;;;4974477;28;20023;-74
2023/04/11 11:50:25;;;;;;;14.20;8.38;;;17.70;83.60;;;;;;4951228;28;20039;-75
2023/04/11 11:52:53;;;;;;;15.50;9.27;;;17.60;82.50;;;;;;4954600;29;20058;-77
2023/04/11 11:55:21;;;;;;;18.50;9.85;;;17.40;83.20;;;;;;4954788;29;20031;-74
2023/04/11 11:57:48;;;;;;;15.43;8.48;;;17.30;83.10;;;;;;4967551;28;20109;-75
2023/04/11 12:00:22;;;;;;;13.80;8.40;;;17.10;83.30;;;;;;4962116;28;20093;-73
2023/04/11 12:02:50;;;;;;;14.73;9.15;;;17.00;80.10;;;;;;4973713;28;20038;-74
2023/04/11 12:05:16;;;;;;;16.27;8.82;;;17.00;81.80;;;;;;4974186;28;20018;-75
2023/04/11 12:07:57;;;;;;;15.40;9.88;;;17.00;85.20;;;;;;5069184;28;20445;-74
2023/04/11 12:10:23;;;;;;;16.48;9.30;;;17.00;85.10;;;;;;5068935;28;20028;-73
2023/04/11 12:12:49;;;;;;;12.65;7.75;;;17.00;84.70;;;;;;5069082;28;20055;-74
2023/04/11 12:15:17;;;;;;;16.00;7.22;;;17.30;83.60;;;;;;5069018;28;20038;-74
2023/04/11 12:17:53;;;;;;;12.43;7.50;;;17.40;80.60;;;;;;5057983;28;20365;-75
2023/04/11 12:20:25;;;;;;;12.73;7.82;;;17.50;79.90;;;;;;5042771;28;20036;-76
2023/04/11 12:22:51;;;;;;;13.90;8.05;;;17.70;82.30;;;;;;5068899;28;20119;-74
2023/04/11 12:25:17;;;;;;;13.38;7.88;;;17.90;83.60;;;;;;5069017;28;20098;-76
2023/04/11 12:27:44;;;;;;;15.15;8.52;;;17.80;80.50;;;;;;5068583;28;20037;-77
2023/04/11 12:30:13;;;;;;;15.38;7.63;;;17.70;79.70;;;;;;5069161;28;20488;-76
2023/04/11 12:32:40;;;;;;;13.13;6.55;;;17.80;78.70;;;;;;5068547;28;20396;-76
2023/04/11 12:35:06;;;;;;;13.57;7.40;;;17.90;78.40;;;;;;5068630;28;20025;-77
2023/04/11 12:37:33;;;;;;;12.45;7.68;;;17.70;79.30;;;;;;5068152;28;20029;-74
2023/04/11 12:39:59;;;;;;;14.73;7.60;;;17.50;77.70;;;;;;5068714;28;20025;-76
2023/04/11 12:42:25;;;;;;;13.20;7.50;;;17.60;81.30;;;;;;5045347;28;20040;-76